sensor_id;sensor_type;location;lat;lon;timestamp;P1;durP1;ratioP1;P2;durP2;ratioP2
50906;SDS011;36882;27.680;85.304;2022-12-18T00:00:30;310.23;;;172.73;;
50906;SDS011;36882;27.680;85.304;2022-12-18T00:03:00;314.27;;;173.30;;
50906;SDS011;36882;27.680;85.304;2022-12-18T00:05:30;313.92;;;169.30;;
50906;SDS011;36882;27.680;85.304;2022-12-18T00:08:00;311.88;;;169.18;;
50906;SDS011;36882;27.680;85.304;2022-12-18T00:10:35;298.77;;;169.10;;
50906;SDS011;36882;27.680;85.304;2022-12-18T00:13:04;310.40;;;172.40;;
50906;SDS011;36882;27.680;85.304;2022-12-18T00:15:36;301.30;;;160.57;;
50906;SDS011;36882;27.680;85.304;2022-12-18T00:18:06;314.48;;;171.27;;
50906;SDS011;36882;27.680;85.304;2022-12-18T00:20:40;322.05;;;180.35;;
50906;SDS011;36882;27.680;85.304;2022-12-18T00:23:10;322.77;;;180.75;;
50906;SDS011;36882;27.680;85.304;2022-12-18T00:25:40;329.30;;;185.40;;
50906;SDS011;36882;27.680;85.304;2022-12-18T00:28:09;337.50;;;181.70;;
50906;SDS011;36882;27.680;85.304;2022-12-18T00:30:39;323.27;;;178.80;;
50906;SDS011;36882;27.680;85.304;2022-12-18T00:33:09;343.77;;;184.52;;
50906;SDS011;36882;27.680;85.304;2022-12-18T00:35:39;326.15;;;178.85;;
50906;SDS011;36882;27.680;85.304;2022-12-18T00:38:09;327.93;;;187.73;;
50906;SDS011;36882;27.680;85.304;2022-12-18T00:40:39;321.48;;;175.90;;
50906;SDS011;36882;27.680;85.304;2022-12-18T00:43:09;345.83;;;177.75;;
50906;SDS011;36882;27.680;85.304;2022-12-18T00:45:39;291.93;;;166.43;;
50906;SDS011;36882;27.680;85.304;2022-12-18T00:48:10;284.35;;;154.23;;
50906;SDS011;36882;27.680;85.304;2022-12-18T00:50:40;272.45;;;141.88;;
50906;SDS011;36882;27.680;85.304;2022-12-18T00:53:10;224.57;;;118.93;;
50906;SDS011;36882;27.680;85.304;2022-12-18T00:55:40;245.98;;;131.30;;
50906;SDS011;36882;27.680;85.304;2022-12-18T00:58:13;263.38;;;129.50;;
50906;SDS011;36882;27.680;85.304;2022-12-18T01:00:44;240.25;;;127.15;;
50906;SDS011;36882;27.680;85.304;2022-12-18T01:03:14;220.93;;;112.25;;
50906;SDS011;36882;27.680;85.304;2022-12-18T01:05:44;207.10;;;110.95;;
50906;SDS011;36882;27.680;85.304;2022-12-18T01:08:14;208.00;;;111.40;;
50906;SDS011;36882;27.680;85.304;2022-12-18T01:10:43;204.40;;;109.68;;
50906;SDS011;36882;27.680;85.304;2022-12-18T01:13:13;205.45;;;108.03;;
50906;SDS011;36882;27.680;85.304;2022-12-18T01:15:50;182.13;;;101.50;;
50906;SDS011;36882;27.680;85.304;2022-12-18T01:18:20;194.00;;;97.53;;
50906;SDS011;36882;27.680;85.304;2022-12-18T01:20:50;213.25;;;113.18;;
50906;SDS011;36882;27.680;85.304;2022-12-18T01:23:20;241.98;;;130.05;;
50906;SDS011;36882;27.680;85.304;2022-12-18T01:25:50;233.27;;;118.85;;
50906;SDS011;36882;27.680;85.304;2022-12-18T01:28:20;218.67;;;120.33;;
50906;SDS011;36882;27.680;85.304;2022-12-18T01:30:50;214.93;;;118.35;;
50906;SDS011;36882;27.680;85.304;2022-12-18T01:35:49;221.23;;;119.25;;
50906;SDS011;36882;27.680;85.304;2022-12-18T01:38:19;220.07;;;116.63;;
50906;SDS011;36882;27.680;85.304;2022-12-18T01:40:49;217.88;;;117.82;;
50906;SDS011;36882;27.680;85.304;2022-12-18T01:46:19;201.18;;;111.05;;
50906;SDS011;36882;27.680;85.304;2022-12-18T01:48:55;191.60;;;104.03;;
50906;SDS011;36882;27.680;85.304;2022-12-18T01:51:28;196.45;;;107.55;;
50906;SDS011;36882;27.680;85.304;2022-12-18T01:53:59;189.70;;;99.97;;
50906;SDS011;36882;27.680;85.304;2022-12-18T01:56:29;192.50;;;97.70;;
50906;SDS011;36882;27.680;85.304;2022-12-18T01:59:02;182.70;;;97.10;;
50906;SDS011;36882;27.680;85.304;2022-12-18T02:01:35;187.52;;;94.63;;
50906;SDS011;36882;27.680;85.304;2022-12-18T02:07:03;181.23;;;100.55;;
50906;SDS011;36882;27.680;85.304;2022-12-18T02:09:48;160.05;;;94.97;;
50906;SDS011;36882;27.680;85.304;2022-12-18T02:12:46;180.88;;;93.88;;
50906;SDS011;36882;27.680;85.304;2022-12-18T02:18:38;188.27;;;102.32;;
50906;SDS011;36882;27.680;85.304;2022-12-18T02:21:16;194.50;;;109.60;;
50906;SDS011;36882;27.680;85.304;2022-12-18T02:24:04;184.13;;;105.47;;
50906;SDS011;36882;27.680;85.304;2022-12-18T02:26:48;190.88;;;103.10;;
50906;SDS011;36882;27.680;85.304;2022-12-18T02:29:24;188.13;;;99.93;;
50906;SDS011;36882;27.680;85.304;2022-12-18T02:32:02;179.35;;;98.47;;
50906;SDS011;36882;27.680;85.304;2022-12-18T02:34:36;185.20;;;101.07;;
50906;SDS011;36882;27.680;85.304;2022-12-18T02:37:09;163.35;;;98.30;;
50906;SDS011;36882;27.680;85.304;2022-12-18T02:39:46;173.57;;;98.38;;
50906;SDS011;36882;27.680;85.304;2022-12-18T02:42:18;182.57;;;106.40;;
50906;SDS011;36882;27.680;85.304;2022-12-18T02:44:50;190.02;;;110.53;;
50906;SDS011;36882;27.680;85.304;2022-12-18T02:47:22;177.70;;;103.00;;
50906;SDS011;36882;27.680;85.304;2022-12-18T02:50:14;175.02;;;97.88;;
50906;SDS011;36882;27.680;85.304;2022-12-18T02:53:20;166.98;;;91.88;;
50906;SDS011;36882;27.680;85.304;2022-12-18T02:56:17;160.68;;;91.47;;
50906;SDS011;36882;27.680;85.304;2022-12-18T02:59:00;160.10;;;86.80;;
50906;SDS011;36882;27.680;85.304;2022-12-18T03:01:49;146.13;;;86.88;;
50906;SDS011;36882;27.680;85.304;2022-12-18T03:04:34;142.75;;;84.63;;
50906;SDS011;36882;27.680;85.304;2022-12-18T03:10:30;137.57;;;82.47;;
50906;SDS011;36882;27.680;85.304;2022-12-18T03:13:35;143.38;;;84.07;;
50906;SDS011;36882;27.680;85.304;2022-12-18T03:15:57;136.30;;;79.68;;
50906;SDS011;36882;27.680;85.304;2022-12-18T03:18:31;146.23;;;81.25;;
50906;SDS011;36882;27.680;85.304;2022-12-18T03:21:06;147.43;;;83.38;;
50906;SDS011;36882;27.680;85.304;2022-12-18T03:23:44;142.07;;;82.70;;
50906;SDS011;36882;27.680;85.304;2022-12-18T03:26:17;154.90;;;89.93;;
50906;SDS011;36882;27.680;85.304;2022-12-18T03:28:53;145.40;;;86.10;;
50906;SDS011;36882;27.680;85.304;2022-12-18T03:31:28;159.82;;;93.50;;
50906;SDS011;36882;27.680;85.304;2022-12-18T03:34:02;167.13;;;93.35;;
50906;SDS011;36882;27.680;85.304;2022-12-18T03:36:37;184.60;;;96.68;;
50906;SDS011;36882;27.680;85.304;2022-12-18T03:39:07;159.13;;;93.93;;
50906;SDS011;36882;27.680;85.304;2022-12-18T03:41:40;163.25;;;94.85;;
50906;SDS011;36882;27.680;85.304;2022-12-18T03:47:10;177.60;;;98.07;;
50906;SDS011;36882;27.680;85.304;2022-12-18T03:49:56;176.10;;;103.57;;
50906;SDS011;36882;27.680;85.304;2022-12-18T03:52:50;182.25;;;106.00;;
50906;SDS011;36882;27.680;85.304;2022-12-18T03:55:24;193.30;;;107.45;;
50906;SDS011;36882;27.680;85.304;2022-12-18T03:57:59;188.05;;;109.80;;
50906;SDS011;36882;27.680;85.304;2022-12-18T04:00:31;190.48;;;110.97;;
50906;SDS011;36882;27.680;85.304;2022-12-18T04:03:02;182.55;;;114.80;;
50906;SDS011;36882;27.680;85.304;2022-12-18T04:05:34;184.93;;;113.32;;
50906;SDS011;36882;27.680;85.304;2022-12-18T04:08:06;195.80;;;112.35;;
50906;SDS011;36882;27.680;85.304;2022-12-18T04:10:36;202.88;;;115.38;;
50906;SDS011;36882;27.680;85.304;2022-12-18T04:15:36;225.60;;;121.22;;
50906;SDS011;36882;27.680;85.304;2022-12-18T04:18:07;218.23;;;124.63;;
50906;SDS011;36882;27.680;85.304;2022-12-18T04:20:37;215.52;;;127.25;;
50906;SDS011;36882;27.680;85.304;2022-12-18T04:23:07;212.50;;;125.32;;
50906;SDS011;36882;27.680;85.304;2022-12-18T04:25:37;203.27;;;123.28;;
50906;SDS011;36882;27.680;85.304;2022-12-18T04:28:07;207.77;;;123.65;;
50906;SDS011;36882;27.680;85.304;2022-12-18T04:30:37;218.48;;;130.10;;
50906;SDS011;36882;27.680;85.304;2022-12-18T04:33:09;216.65;;;126.10;;
50906;SDS011;36882;27.680;85.304;2022-12-18T04:35:41;213.82;;;127.40;;
50906;SDS011;36882;27.680;85.304;2022-12-18T04:38:11;206.57;;;128.27;;
50906;SDS011;36882;27.680;85.304;2022-12-18T04:40:41;211.65;;;126.03;;
50906;SDS011;36882;27.680;85.304;2022-12-18T04:43:12;208.43;;;124.47;;
50906;SDS011;36882;27.680;85.304;2022-12-18T04:45:42;213.68;;;123.90;;
50906;SDS011;36882;27.680;85.304;2022-12-18T04:48:13;228.80;;;133.10;;
50906;SDS011;36882;27.680;85.304;2022-12-18T04:50:43;202.90;;;120.25;;
50906;SDS011;36882;27.680;85.304;2022-12-18T04:53:13;203.60;;;122.65;;
50906;SDS011;36882;27.680;85.304;2022-12-18T04:55:43;213.50;;;123.03;;
50906;SDS011;36882;27.680;85.304;2022-12-18T04:58:13;203.68;;;117.97;;
50906;SDS011;36882;27.680;85.304;2022-12-18T05:00:46;196.52;;;114.50;;
50906;SDS011;36882;27.680;85.304;2022-12-18T05:03:17;186.93;;;108.95;;
50906;SDS011;36882;27.680;85.304;2022-12-18T05:05:50;186.70;;;113.88;;
50906;SDS011;36882;27.680;85.304;2022-12-18T05:08:21;186.15;;;108.50;;
50906;SDS011;36882;27.680;85.304;2022-12-18T05:11:03;191.55;;;118.55;;
50906;SDS011;36882;27.680;85.304;2022-12-18T05:13:38;194.48;;;116.65;;
50906;SDS011;36882;27.680;85.304;2022-12-18T05:16:08;220.10;;;120.53;;
50906;SDS011;36882;27.680;85.304;2022-12-18T05:18:39;181.65;;;107.28;;
50906;SDS011;36882;27.680;85.304;2022-12-18T05:21:10;176.10;;;107.30;;
50906;SDS011;36882;27.680;85.304;2022-12-18T05:23:40;171.68;;;104.65;;
50906;SDS011;36882;27.680;85.304;2022-12-18T05:26:10;181.55;;;106.90;;
50906;SDS011;36882;27.680;85.304;2022-12-18T05:28:47;179.07;;;105.72;;
50906;SDS011;36882;27.680;85.304;2022-12-18T05:31:16;180.68;;;108.40;;
50906;SDS011;36882;27.680;85.304;2022-12-18T05:33:47;164.50;;;103.10;;
50906;SDS011;36882;27.680;85.304;2022-12-18T05:36:17;180.27;;;104.93;;
50906;SDS011;36882;27.680;85.304;2022-12-18T05:38:47;150.23;;;92.03;;
50906;SDS011;36882;27.680;85.304;2022-12-18T05:41:17;158.32;;;93.97;;
50906;SDS011;36882;27.680;85.304;2022-12-18T05:43:47;153.15;;;87.55;;
50906;SDS011;36882;27.680;85.304;2022-12-18T05:46:17;151.93;;;89.22;;
50906;SDS011;36882;27.680;85.304;2022-12-18T05:51:19;142.20;;;81.07;;
50906;SDS011;36882;27.680;85.304;2022-12-18T05:53:52;127.43;;;76.40;;
50906;SDS011;36882;27.680;85.304;2022-12-18T05:56:22;140.93;;;83.38;;
50906;SDS011;36882;27.680;85.304;2022-12-18T05:58:53;109.90;;;71.70;;
50906;SDS011;36882;27.680;85.304;2022-12-18T06:01:24;114.70;;;71.00;;
50906;SDS011;36882;27.680;85.304;2022-12-18T06:03:56;102.15;;;64.45;;
50906;SDS011;36882;27.680;85.304;2022-12-18T06:06:27;110.93;;;67.60;;
50906;SDS011;36882;27.680;85.304;2022-12-18T06:08:59;118.35;;;71.60;;
50906;SDS011;36882;27.680;85.304;2022-12-18T06:11:29;118.15;;;71.65;;
50906;SDS011;36882;27.680;85.304;2022-12-18T06:13:59;118.13;;;69.90;;
50906;SDS011;36882;27.680;85.304;2022-12-18T06:18:59;107.40;;;67.60;;
50906;SDS011;36882;27.680;85.304;2022-12-18T06:21:32;122.32;;;73.70;;
50906;SDS011;36882;27.680;85.304;2022-12-18T06:24:03;114.93;;;65.90;;
50906;SDS011;36882;27.680;85.304;2022-12-18T06:29:02;105.07;;;63.83;;
50906;SDS011;36882;27.680;85.304;2022-12-18T06:31:32;95.80;;;54.47;;
50906;SDS011;36882;27.680;85.304;2022-12-18T06:34:03;81.50;;;52.22;;
50906;SDS011;36882;27.680;85.304;2022-12-18T06:36:33;110.63;;;63.50;;
50906;SDS011;36882;27.680;85.304;2022-12-18T06:39:04;109.72;;;69.13;;
50906;SDS011;36882;27.680;85.304;2022-12-18T06:41:34;111.93;;;67.03;;
50906;SDS011;36882;27.680;85.304;2022-12-18T06:44:05;114.43;;;64.30;;
50906;SDS011;36882;27.680;85.304;2022-12-18T06:46:36;106.63;;;66.63;;
50906;SDS011;36882;27.680;85.304;2022-12-18T06:49:07;108.75;;;68.20;;
50906;SDS011;36882;27.680;85.304;2022-12-18T06:51:37;102.30;;;58.35;;
50906;SDS011;36882;27.680;85.304;2022-12-18T06:54:07;103.10;;;59.78;;
50906;SDS011;36882;27.680;85.304;2022-12-18T06:56:37;95.28;;;56.45;;
50906;SDS011;36882;27.680;85.304;2022-12-18T06:59:09;85.03;;;52.72;;
50906;SDS011;36882;27.680;85.304;2022-12-18T07:01:39;90.00;;;53.63;;
50906;SDS011;36882;27.680;85.304;2022-12-18T07:04:09;90.28;;;55.90;;
50906;SDS011;36882;27.680;85.304;2022-12-18T07:06:40;83.03;;;48.33;;
50906;SDS011;36882;27.680;85.304;2022-12-18T07:09:10;97.95;;;56.17;;
50906;SDS011;36882;27.680;85.304;2022-12-18T07:11:39;98.25;;;53.88;;
50906;SDS011;36882;27.680;85.304;2022-12-18T07:14:09;93.60;;;55.88;;
50906;SDS011;36882;27.680;85.304;2022-12-18T07:16:39;95.22;;;54.33;;
50906;SDS011;36882;27.680;85.304;2022-12-18T07:19:09;71.13;;;45.17;;
50906;SDS011;36882;27.680;85.304;2022-12-18T07:21:40;78.00;;;46.40;;
50906;SDS011;36882;27.680;85.304;2022-12-18T07:24:10;80.70;;;43.92;;
50906;SDS011;36882;27.680;85.304;2022-12-18T07:26:40;73.65;;;41.90;;
50906;SDS011;36882;27.680;85.304;2022-12-18T07:29:10;72.85;;;42.67;;
50906;SDS011;36882;27.680;85.304;2022-12-18T07:34:12;81.38;;;43.80;;
50906;SDS011;36882;27.680;85.304;2022-12-18T07:36:43;61.83;;;39.45;;
50906;SDS011;36882;27.680;85.304;2022-12-18T07:39:14;65.50;;;39.50;;
50906;SDS011;36882;27.680;85.304;2022-12-18T07:41:43;88.55;;;48.33;;
50906;SDS011;36882;27.680;85.304;2022-12-18T07:44:33;88.83;;;52.93;;
50906;SDS011;36882;27.680;85.304;2022-12-18T07:47:03;88.88;;;50.25;;
50906;SDS011;36882;27.680;85.304;2022-12-18T07:49:37;78.93;;;49.63;;
50906;SDS011;36882;27.680;85.304;2022-12-18T07:52:07;84.50;;;53.15;;
50906;SDS011;36882;27.680;85.304;2022-12-18T07:54:37;75.85;;;47.28;;
50906;SDS011;36882;27.680;85.304;2022-12-18T07:57:09;74.65;;;48.15;;
50906;SDS011;36882;27.680;85.304;2022-12-18T08:02:31;73.35;;;44.28;;
50906;SDS011;36882;27.680;85.304;2022-12-18T08:05:08;68.13;;;43.03;;
50906;SDS011;36882;27.680;85.304;2022-12-18T08:10:07;75.55;;;43.00;;
50906;SDS011;36882;27.680;85.304;2022-12-18T08:12:37;64.35;;;40.50;;
50906;SDS011;36882;27.680;85.304;2022-12-18T08:17:40;68.68;;;41.95;;
50906;SDS011;36882;27.680;85.304;2022-12-18T08:20:14;64.28;;;42.45;;
50906;SDS011;36882;27.680;85.304;2022-12-18T08:22:45;67.88;;;41.05;;
50906;SDS011;36882;27.680;85.304;2022-12-18T08:25:18;68.00;;;44.00;;
50906;SDS011;36882;27.680;85.304;2022-12-18T08:27:48;71.55;;;40.97;;
50906;SDS011;36882;27.680;85.304;2022-12-18T08:30:18;67.82;;;43.55;;
50906;SDS011;36882;27.680;85.304;2022-12-18T08:32:50;64.78;;;41.35;;
50906;SDS011;36882;27.680;85.304;2022-12-18T08:35:23;63.17;;;39.25;;
50906;SDS011;36882;27.680;85.304;2022-12-18T08:38:03;69.57;;;39.45;;
50906;SDS011;36882;27.680;85.304;2022-12-18T08:40:34;64.05;;;40.28;;
50906;SDS011;36882;27.680;85.304;2022-12-18T08:43:04;67.18;;;40.50;;
50906;SDS011;36882;27.680;85.304;2022-12-18T08:45:49;64.35;;;36.55;;
50906;SDS011;36882;27.680;85.304;2022-12-18T08:48:21;64.70;;;38.22;;
50906;SDS011;36882;27.680;85.304;2022-12-18T08:50:58;59.85;;;35.80;;
50906;SDS011;36882;27.680;85.304;2022-12-18T08:53:29;63.03;;;36.08;;
50906;SDS011;36882;27.680;85.304;2022-12-18T08:56:01;64.80;;;36.78;;
50906;SDS011;36882;27.680;85.304;2022-12-18T08:58:32;61.53;;;37.30;;
50906;SDS011;36882;27.680;85.304;2022-12-18T09:03:32;53.17;;;34.17;;
50906;SDS011;36882;27.680;85.304;2022-12-18T09:06:03;61.92;;;37.22;;
50906;SDS011;36882;27.680;85.304;2022-12-18T09:08:34;69.32;;;38.60;;
50906;SDS011;36882;27.680;85.304;2022-12-18T09:11:09;59.35;;;37.65;;
50906;SDS011;36882;27.680;85.304;2022-12-18T09:13:43;58.45;;;35.25;;
50906;SDS011;36882;27.680;85.304;2022-12-18T09:18:43;58.60;;;36.40;;
50906;SDS011;36882;27.680;85.304;2022-12-18T09:21:14;67.07;;;36.05;;
50906;SDS011;36882;27.680;85.304;2022-12-18T09:23:50;63.70;;;35.25;;
50906;SDS011;36882;27.680;85.304;2022-12-18T09:26:21;54.20;;;34.45;;
50906;SDS011;36882;27.680;85.304;2022-12-18T09:28:52;55.40;;;35.28;;
50906;SDS011;36882;27.680;85.304;2022-12-18T09:31:23;61.35;;;35.15;;
50906;SDS011;36882;27.680;85.304;2022-12-18T09:36:24;51.50;;;31.85;;
50906;SDS011;36882;27.680;85.304;2022-12-18T09:38:54;45.85;;;31.98;;
50906;SDS011;36882;27.680;85.304;2022-12-18T09:44:28;55.05;;;31.77;;
50906;SDS011;36882;27.680;85.304;2022-12-18T09:47:17;67.35;;;35.63;;
50906;SDS011;36882;27.680;85.304;2022-12-18T09:49:53;60.08;;;32.67;;
50906;SDS011;36882;27.680;85.304;2022-12-18T09:52:30;51.13;;;32.58;;
50906;SDS011;36882;27.680;85.304;2022-12-18T09:55:15;60.63;;;36.08;;
50906;SDS011;36882;27.680;85.304;2022-12-18T09:58:06;59.20;;;35.70;;
50906;SDS011;36882;27.680;85.304;2022-12-18T10:01:00;62.55;;;34.00;;
50906;SDS011;36882;27.680;85.304;2022-12-18T10:03:31;60.45;;;33.92;;
50906;SDS011;36882;27.680;85.304;2022-12-18T10:09:09;54.90;;;33.08;;
50906;SDS011;36882;27.680;85.304;2022-12-18T10:12:04;58.78;;;32.75;;
50906;SDS011;36882;27.680;85.304;2022-12-18T10:14:46;53.40;;;34.15;;
50906;SDS011;36882;27.680;85.304;2022-12-18T10:17:34;53.47;;;34.60;;
50906;SDS011;36882;27.680;85.304;2022-12-18T10:20:21;62.92;;;38.50;;
50906;SDS011;36882;27.680;85.304;2022-12-18T10:23:04;60.30;;;37.78;;
50906;SDS011;36882;27.680;85.304;2022-12-18T10:28:40;58.78;;;38.92;;
50906;SDS011;36882;27.680;85.304;2022-12-18T10:31:14;65.93;;;39.33;;
50906;SDS011;36882;27.680;85.304;2022-12-18T10:33:50;65.45;;;39.10;;
50906;SDS011;36882;27.680;85.304;2022-12-18T10:36:23;71.78;;;40.63;;
50906;SDS011;36882;27.680;85.304;2022-12-18T10:38:54;83.60;;;42.38;;
50906;SDS011;36882;27.680;85.304;2022-12-18T10:41:45;71.03;;;40.67;;
50906;SDS011;36882;27.680;85.304;2022-12-18T10:44:17;77.05;;;42.92;;
50906;SDS011;36882;27.680;85.304;2022-12-18T10:46:51;71.32;;;42.72;;
50906;SDS011;36882;27.680;85.304;2022-12-18T10:49:27;72.35;;;44.47;;
50906;SDS011;36882;27.680;85.304;2022-12-18T10:52:04;98.35;;;51.05;;
50906;SDS011;36882;27.680;85.304;2022-12-18T10:54:50;72.85;;;42.72;;
50906;SDS011;36882;27.680;85.304;2022-12-18T10:57:29;74.55;;;45.83;;
50906;SDS011;36882;27.680;85.304;2022-12-18T11:02:56;69.13;;;45.80;;
50906;SDS011;36882;27.680;85.304;2022-12-18T11:05:30;68.00;;;42.58;;
50906;SDS011;36882;27.680;85.304;2022-12-18T11:08:03;81.15;;;43.40;;
50906;SDS011;36882;27.680;85.304;2022-12-18T11:10:35;81.97;;;46.25;;
50906;SDS011;36882;27.680;85.304;2022-12-18T11:15:52;80.65;;;44.78;;
50906;SDS011;36882;27.680;85.304;2022-12-18T11:18:27;77.68;;;47.70;;
50906;SDS011;36882;27.680;85.304;2022-12-18T11:21:09;80.53;;;48.22;;
50906;SDS011;36882;27.680;85.304;2022-12-18T11:23:46;79.72;;;48.75;;
50906;SDS011;36882;27.680;85.304;2022-12-18T11:26:20;72.10;;;48.08;;
50906;SDS011;36882;27.680;85.304;2022-12-18T11:29:10;91.97;;;54.17;;
50906;SDS011;36882;27.680;85.304;2022-12-18T11:31:47;98.82;;;57.33;;
50906;SDS011;36882;27.680;85.304;2022-12-18T11:34:25;100.10;;;56.17;;
50906;SDS011;36882;27.680;85.304;2022-12-18T11:37:02;100.85;;;59.75;;
50906;SDS011;36882;27.680;85.304;2022-12-18T11:39:36;112.00;;;59.75;;
50906;SDS011;36882;27.680;85.304;2022-12-18T11:42:19;140.75;;;80.32;;
50906;SDS011;36882;27.680;85.304;2022-12-18T11:44:59;240.25;;;136.23;;
50906;SDS011;36882;27.680;85.304;2022-12-18T11:48:00;219.75;;;123.22;;
50906;SDS011;36882;27.680;85.304;2022-12-18T11:53:27;127.07;;;74.57;;
50906;SDS011;36882;27.680;85.304;2022-12-18T11:56:11;100.70;;;61.05;;
50906;SDS011;36882;27.680;85.304;2022-12-18T11:59:02;100.90;;;60.08;;
50906;SDS011;36882;27.680;85.304;2022-12-18T12:01:58;99.18;;;60.33;;
50906;SDS011;36882;27.680;85.304;2022-12-18T12:04:52;94.40;;;52.00;;
50906;SDS011;36882;27.680;85.304;2022-12-18T12:07:38;84.70;;;49.92;;
50906;SDS011;36882;27.680;85.304;2022-12-18T12:13:29;89.28;;;54.75;;
50906;SDS011;36882;27.680;85.304;2022-12-18T12:16:15;86.43;;;54.80;;
50906;SDS011;36882;27.680;85.304;2022-12-18T12:18:54;95.65;;;56.95;;
50906;SDS011;36882;27.680;85.304;2022-12-18T12:21:47;99.30;;;57.58;;
50906;SDS011;36882;27.680;85.304;2022-12-18T12:27:43;108.53;;;58.75;;
50906;SDS011;36882;27.680;85.304;2022-12-18T12:30:40;105.55;;;59.33;;
50906;SDS011;36882;27.680;85.304;2022-12-18T12:36:38;106.05;;;59.67;;
50906;SDS011;36882;27.680;85.304;2022-12-18T12:39:31;114.22;;;62.97;;
50906;SDS011;36882;27.680;85.304;2022-12-18T12:42:05;123.47;;;73.93;;
50906;SDS011;36882;27.680;85.304;2022-12-18T12:45:16;124.82;;;75.85;;
50906;SDS011;36882;27.680;85.304;2022-12-18T12:47:55;126.32;;;73.47;;
50906;SDS011;36882;27.680;85.304;2022-12-18T12:50:30;139.23;;;81.15;;
50906;SDS011;36882;27.680;85.304;2022-12-18T12:53:06;141.80;;;81.20;;
50906;SDS011;36882;27.680;85.304;2022-12-18T12:55:42;150.18;;;86.40;;
50906;SDS011;36882;27.680;85.304;2022-12-18T13:01:23;164.95;;;95.72;;
50906;SDS011;36882;27.680;85.304;2022-12-18T13:04:14;146.18;;;82.53;;
50906;SDS011;36882;27.680;85.304;2022-12-18T13:06:56;147.77;;;83.95;;
50906;SDS011;36882;27.680;85.304;2022-12-18T13:12:53;133.25;;;77.22;;
50906;SDS011;36882;27.680;85.304;2022-12-18T13:15:29;134.43;;;77.40;;
50906;SDS011;36882;27.680;85.304;2022-12-18T13:18:18;133.68;;;80.30;;
50906;SDS011;36882;27.680;85.304;2022-12-18T13:23:56;133.85;;;76.95;;
50906;SDS011;36882;27.680;85.304;2022-12-18T13:26:51;127.60;;;75.85;;
50906;SDS011;36882;27.680;85.304;2022-12-18T13:32:18;116.78;;;69.53;;
50906;SDS011;36882;27.680;85.304;2022-12-18T13:35:36;112.72;;;68.43;;
50906;SDS011;36882;27.680;85.304;2022-12-18T13:38:00;114.30;;;69.53;;
50906;SDS011;36882;27.680;85.304;2022-12-18T13:43:31;126.68;;;68.90;;
50906;SDS011;36882;27.680;85.304;2022-12-18T13:48:59;113.85;;;69.53;;
50906;SDS011;36882;27.680;85.304;2022-12-18T13:51:33;111.40;;;67.65;;
50906;SDS011;36882;27.680;85.304;2022-12-18T13:54:11;112.43;;;67.25;;
50906;SDS011;36882;27.680;85.304;2022-12-18T13:57:04;145.43;;;74.50;;
50906;SDS011;36882;27.680;85.304;2022-12-18T14:02:25;169.55;;;87.07;;
50906;SDS011;36882;27.680;85.304;2022-12-18T14:04:56;149.80;;;82.65;;
50906;SDS011;36882;27.680;85.304;2022-12-18T14:07:26;169.15;;;80.65;;
50906;SDS011;36882;27.680;85.304;2022-12-18T14:10:11;157.98;;;84.63;;
50906;SDS011;36882;27.680;85.304;2022-12-18T14:13:05;176.82;;;96.90;;
50906;SDS011;36882;27.680;85.304;2022-12-18T14:15:46;157.50;;;91.00;;
50906;SDS011;36882;27.680;85.304;2022-12-18T14:18:21;165.70;;;93.60;;
50906;SDS011;36882;27.680;85.304;2022-12-18T14:21:01;170.75;;;97.70;;
50906;SDS011;36882;27.680;85.304;2022-12-18T14:23:33;194.40;;;100.88;;
50906;SDS011;36882;27.680;85.304;2022-12-18T14:28:56;189.30;;;105.07;;
50906;SDS011;36882;27.680;85.304;2022-12-18T14:31:30;185.10;;;107.07;;
50906;SDS011;36882;27.680;85.304;2022-12-18T14:34:00;180.30;;;103.75;;
50906;SDS011;36882;27.680;85.304;2022-12-18T14:36:30;176.77;;;103.93;;
50906;SDS011;36882;27.680;85.304;2022-12-18T14:39:00;181.32;;;105.32;;
50906;SDS011;36882;27.680;85.304;2022-12-18T14:41:30;171.93;;;101.00;;
50906;SDS011;36882;27.680;85.304;2022-12-18T14:44:05;165.95;;;100.68;;
50906;SDS011;36882;27.680;85.304;2022-12-18T14:46:37;174.23;;;99.30;;
50906;SDS011;36882;27.680;85.304;2022-12-18T14:52:04;166.98;;;92.32;;
50906;SDS011;36882;27.680;85.304;2022-12-18T14:54:46;144.60;;;83.03;;
50906;SDS011;36882;27.680;85.304;2022-12-18T14:59:52;152.13;;;84.75;;
50906;SDS011;36882;27.680;85.304;2022-12-18T15:02:25;147.82;;;82.72;;
50906;SDS011;36882;27.680;85.304;2022-12-18T15:05:03;158.88;;;97.32;;
50906;SDS011;36882;27.680;85.304;2022-12-18T15:07:45;162.35;;;96.50;;
50906;SDS011;36882;27.680;85.304;2022-12-18T15:10:20;161.18;;;90.43;;
50906;SDS011;36882;27.680;85.304;2022-12-18T15:15:47;139.02;;;77.50;;
50906;SDS011;36882;27.680;85.304;2022-12-18T15:18:18;132.68;;;80.50;;
50906;SDS011;36882;27.680;85.304;2022-12-18T15:20:56;135.32;;;75.78;;
50906;SDS011;36882;27.680;85.304;2022-12-18T15:23:32;131.18;;;72.82;;
50906;SDS011;36882;27.680;85.304;2022-12-18T15:26:14;139.27;;;76.40;;
50906;SDS011;36882;27.680;85.304;2022-12-18T15:28:55;132.20;;;76.50;;
50906;SDS011;36882;27.680;85.304;2022-12-18T15:31:30;118.07;;;70.57;;
50906;SDS011;36882;27.680;85.304;2022-12-18T15:36:50;120.05;;;67.47;;
50906;SDS011;36882;27.680;85.304;2022-12-18T15:41:49;115.60;;;61.47;;
50906;SDS011;36882;27.680;85.304;2022-12-18T15:44:34;103.75;;;62.22;;
50906;SDS011;36882;27.680;85.304;2022-12-18T15:47:09;95.25;;;60.30;;
50906;SDS011;36882;27.680;85.304;2022-12-18T15:49:41;104.90;;;66.88;;
50906;SDS011;36882;27.680;85.304;2022-12-18T15:52:11;112.18;;;68.28;;
50906;SDS011;36882;27.680;85.304;2022-12-18T15:54:54;113.88;;;68.28;;
50906;SDS011;36882;27.680;85.304;2022-12-18T15:57:35;111.63;;;66.68;;
50906;SDS011;36882;27.680;85.304;2022-12-18T16:00:06;103.57;;;66.63;;
50906;SDS011;36882;27.680;85.304;2022-12-18T16:02:40;118.32;;;63.58;;
50906;SDS011;36882;27.680;85.304;2022-12-18T16:05:13;123.22;;;66.63;;
50906;SDS011;36882;27.680;85.304;2022-12-18T16:07:45;101.85;;;58.72;;
50906;SDS011;36882;27.680;85.304;2022-12-18T16:10:15;116.60;;;70.30;;
50906;SDS011;36882;27.680;85.304;2022-12-18T16:12:46;131.10;;;73.15;;
50906;SDS011;36882;27.680;85.304;2022-12-18T16:15:16;134.20;;;73.82;;
50906;SDS011;36882;27.680;85.304;2022-12-18T16:17:50;135.68;;;72.85;;
50906;SDS011;36882;27.680;85.304;2022-12-18T16:20:21;141.80;;;82.25;;
50906;SDS011;36882;27.680;85.304;2022-12-18T16:22:51;139.48;;;87.28;;
50906;SDS011;36882;27.680;85.304;2022-12-18T16:25:24;172.05;;;98.70;;
50906;SDS011;36882;27.680;85.304;2022-12-18T16:27:56;172.38;;;102.38;;
50906;SDS011;36882;27.680;85.304;2022-12-18T16:30:28;202.80;;;127.20;;